createdAt,value
2022-12-25T00:00:21.522Z,7.30
2022-12-25T00:02:53.450Z,7.30
2022-12-25T00:05:25.372Z,7.30
2022-12-25T00:07:57.071Z,7.30
2022-12-25T00:10:28.755Z,7.30
2022-12-25T00:13:00.494Z,7.30
2022-12-25T00:15:32.226Z,7.30
2022-12-25T00:18:04.056Z,7.30
2022-12-25T00:20:36.006Z,7.30
2022-12-25T00:23:07.726Z,7.30
2022-12-25T00:25:40.629Z,7.30
2022-12-25T00:28:12.385Z,7.30
2022-12-25T00:30:44.107Z,7.30
2022-12-25T00:33:16.033Z,7.30
2022-12-25T00:36:01.134Z,7.30
2022-12-25T00:38:33.890Z,7.30
2022-12-25T00:41:11.576Z,7.30
2022-12-25T00:43:43.687Z,7.30
2022-12-25T00:46:15.484Z,7.30
2022-12-25T00:48:48.428Z,7.30
2022-12-25T00:51:20.111Z,7.30
2022-12-25T00:53:51.863Z,7.20
2022-12-25T00:56:23.655Z,7.20
2022-12-25T00:58:55.541Z,7.20
2022-12-25T01:01:27.344Z,7.20
2022-12-25T01:03:59.583Z,7.20
2022-12-25T01:06:31.443Z,7.20
2022-12-25T01:09:22.405Z,7.20
2022-12-25T01:11:54.143Z,7.20
2022-12-25T01:14:25.832Z,7.20
2022-12-25T01:16:57.574Z,7.20
2022-12-25T01:19:29.322Z,7.20
2022-12-25T01:22:01.002Z,7.20
2022-12-25T01:24:32.712Z,7.20
2022-12-25T01:27:04.452Z,7.20
2022-12-25T01:29:36.348Z,7.20
2022-12-25T01:32:08.174Z,7.10
2022-12-25T01:34:40.109Z,7.20
2022-12-25T01:37:11.909Z,7.20
2022-12-25T01:39:44.012Z,7.10
2022-12-25T01:42:21.859Z,7.10
2022-12-25T01:44:53.508Z,7.10
2022-12-25T01:47:25.284Z,7.10
2022-12-25T01:49:57.407Z,7.10
2022-12-25T01:52:31.049Z,7.10
2022-12-25T01:55:04.156Z,7.10
2022-12-25T01:57:37.664Z,7.10
2022-12-25T02:00:11.612Z,7.10
2022-12-25T02:02:44.544Z,7.10
2022-12-25T02:05:29.514Z,7.10
2022-12-25T02:08:08.532Z,7.10
2022-12-25T02:10:40.498Z,7.10
2022-12-25T02:13:15.604Z,7.10
2022-12-25T02:15:47.301Z,7.10
2022-12-25T02:18:30.161Z,7.10
2022-12-25T02:21:26.943Z,7.10
2022-12-25T02:24:12.806Z,7.10
2022-12-25T02:27:00.387Z,7.00
2022-12-25T02:29:48.045Z,7.00
2022-12-25T02:32:22.729Z,7.00
2022-12-25T02:34:59.693Z,7.00
2022-12-25T02:37:48.519Z,7.00
2022-12-25T02:40:32.231Z,7.00
2022-12-25T02:43:27.322Z,7.00
2022-12-25T02:46:24.640Z,7.00
2022-12-25T02:49:16.089Z,6.90
2022-12-25T02:55:38.829Z,6.90
2022-12-25T02:58:33.445Z,6.90
2022-12-25T03:01:51.787Z,6.90
2022-12-25T03:04:44.461Z,6.80
2022-12-25T03:07:20.901Z,6.80
2022-12-25T03:10:17.910Z,6.80
2022-12-25T03:12:52.091Z,6.90
2022-12-25T03:15:42.880Z,6.90
2022-12-25T03:18:17.479Z,6.80
2022-12-25T03:21:07.989Z,6.80
2022-12-25T03:24:02.090Z,6.80
2022-12-25T03:26:52.775Z,6.80
2022-12-25T03:29:49.865Z,6.80
2022-12-25T03:32:36.604Z,6.80
2022-12-25T03:35:44.175Z,6.80
2022-12-25T03:38:52.247Z,6.70
2022-12-25T03:41:53.550Z,6.70
2022-12-25T03:44:53.295Z,6.70
2022-12-25T03:48:12.035Z,6.60
2022-12-25T03:51:06.713Z,6.50
2022-12-25T03:54:24.804Z,6.50
2022-12-25T03:57:15.852Z,6.40
2022-12-25T04:00:06.366Z,6.40
2022-12-25T04:02:59.648Z,6.40
2022-12-25T04:05:49.755Z,6.30
2022-12-25T04:08:40.110Z,6.30
2022-12-25T04:11:30.565Z,6.20
2022-12-25T04:14:21.052Z,6.20
2022-12-25T04:17:11.522Z,6.20
2022-12-25T04:20:02.124Z,6.20
2022-12-25T04:22:52.735Z,6.20
2022-12-25T04:25:43.409Z,6.20
2022-12-25T04:28:33.844Z,6.20
2022-12-25T04:31:24.426Z,6.20
2022-12-25T04:34:14.700Z,6.30
2022-12-25T04:36:46.462Z,6.20
2022-12-25T04:39:18.227Z,6.20
2022-12-25T04:41:49.946Z,7.70
2022-12-25T04:44:21.601Z,6.20
2022-12-25T04:46:53.488Z,6.20
2022-12-25T04:49:25.322Z,6.10
2022-12-25T04:51:57.006Z,6.10
2022-12-25T04:54:28.678Z,6.10
2022-12-25T04:57:00.405Z,6.10
2022-12-25T04:59:32.084Z,6.00
2022-12-25T05:02:03.863Z,6.00
2022-12-25T05:04:35.631Z,6.00
2022-12-25T05:07:07.418Z,6.00
2022-12-25T05:09:41.740Z,6.00
2022-12-25T05:12:13.891Z,6.00
2022-12-25T05:14:45.564Z,6.00
2022-12-25T05:17:17.287Z,6.00
2022-12-25T05:19:48.939Z,6.00
2022-12-25T05:22:20.692Z,6.00
2022-12-25T05:24:52.496Z,6.00
2022-12-25T05:27:24.360Z,6.00
2022-12-25T05:29:56.120Z,6.00
2022-12-25T05:32:27.865Z,6.00
2022-12-25T05:35:00.369Z,6.00
2022-12-25T05:37:32.119Z,6.00
2022-12-25T05:40:05.015Z,6.00
2022-12-25T05:42:36.717Z,6.00
2022-12-25T05:45:08.756Z,6.00
2022-12-25T05:47:40.428Z,6.00
2022-12-25T05:50:12.406Z,6.00
2022-12-25T05:52:44.361Z,6.00
2022-12-25T05:55:16.414Z,5.90
2022-12-25T05:57:48.390Z,5.90
2022-12-25T06:00:20.465Z,5.80
2022-12-25T06:02:52.350Z,5.70
2022-12-25T06:05:24.328Z,5.70
2022-12-25T06:07:56.723Z,5.60
2022-12-25T06:10:28.421Z,5.60
2022-12-25T06:13:00.775Z,5.60
2022-12-25T06:15:32.772Z,5.60
2022-12-25T06:18:04.567Z,5.60
2022-12-25T06:20:36.341Z,5.70
2022-12-25T06:23:08.072Z,5.70
2022-12-25T06:25:40.439Z,5.80
2022-12-25T06:28:12.212Z,5.80
2022-12-25T06:30:43.871Z,5.80
2022-12-25T06:33:15.563Z,5.90
2022-12-25T06:35:47.222Z,6.00
2022-12-25T06:38:18.893Z,6.00
2022-12-25T06:40:50.582Z,6.00
2022-12-25T06:43:22.246Z,6.10
2022-12-25T06:45:53.966Z,6.10
2022-12-25T06:48:25.700Z,6.20
2022-12-25T06:50:57.429Z,6.20
2022-12-25T06:53:35.362Z,6.30
2022-12-25T06:56:18.452Z,6.30
2022-12-25T06:59:02.177Z,6.30
2022-12-25T07:01:41.593Z,6.30
2022-12-25T07:04:41.072Z,6.30
2022-12-25T07:07:13.019Z,6.30
2022-12-25T07:09:44.751Z,6.40
2022-12-25T07:12:19.881Z,6.40
2022-12-25T07:14:54.916Z,6.50
2022-12-25T07:17:26.629Z,6.50
2022-12-25T07:19:58.349Z,6.50
2022-12-25T07:22:30.184Z,6.50
2022-12-25T07:25:01.839Z,6.50
2022-12-25T07:27:33.552Z,6.60
2022-12-25T07:30:05.870Z,6.60
2022-12-25T07:32:37.618Z,6.50
2022-12-25T07:35:09.442Z,6.60
2022-12-25T07:37:41.119Z,6.50
2022-12-25T07:40:13.167Z,6.60
2022-12-25T07:42:44.831Z,6.60
2022-12-25T07:45:16.563Z,6.60
2022-12-25T07:47:48.241Z,6.70
2022-12-25T07:50:20.081Z,6.70
2022-12-25T07:52:51.737Z,6.60
2022-12-25T07:55:23.585Z,6.70
2022-12-25T07:57:55.237Z,6.70
2022-12-25T08:00:29.821Z,6.70
2022-12-25T08:03:01.765Z,6.80
2022-12-25T08:05:33.574Z,6.70
2022-12-25T08:08:05.459Z,6.80
2022-12-25T08:10:37.153Z,6.80
2022-12-25T08:13:14.247Z,6.80
2022-12-25T08:15:46.384Z,6.90
2022-12-25T08:18:18.045Z,6.90
2022-12-25T08:20:49.716Z,6.90
2022-12-25T08:23:21.420Z,7.00
2022-12-25T08:25:53.109Z,7.00
2022-12-25T08:28:24.791Z,7.00
2022-12-25T08:30:56.685Z,7.10
2022-12-25T08:33:28.399Z,7.10
2022-12-25T08:36:05.405Z,7.10
2022-12-25T08:38:37.483Z,7.20
2022-12-25T08:41:10.316Z,7.20
2022-12-25T08:43:42.413Z,7.20
2022-12-25T08:46:14.192Z,7.20
2022-12-25T08:48:47.640Z,7.20
2022-12-25T08:51:21.788Z,7.30
2022-12-25T08:53:57.683Z,7.30
2022-12-25T08:56:29.543Z,7.30
2022-12-25T08:59:01.254Z,7.40
2022-12-25T09:01:33.079Z,7.40
2022-12-25T09:04:04.977Z,7.50
2022-12-25T09:06:36.640Z,7.50
2022-12-25T09:09:08.337Z,7.50
2022-12-25T09:11:40.036Z,7.50
2022-12-25T09:14:13.670Z,7.60
2022-12-25T09:16:45.357Z,7.70
2022-12-25T09:19:17.190Z,7.70
2022-12-25T09:21:48.892Z,7.80
2022-12-25T09:24:20.918Z,7.80
2022-12-25T09:26:52.763Z,7.70
2022-12-25T09:29:24.603Z,7.70
2022-12-25T09:31:56.278Z,7.70
2022-12-25T09:34:28.009Z,7.70
2022-12-25T09:36:59.681Z,7.60
2022-12-25T09:39:32.016Z,7.70
2022-12-25T09:42:31.191Z,7.70
2022-12-25T09:45:10.743Z,7.80
2022-12-25T09:47:45.903Z,7.80
2022-12-25T09:50:32.844Z,7.80
2022-12-25T09:53:07.473Z,7.90
2022-12-25T09:55:48.306Z,7.90
2022-12-25T09:58:20.013Z,7.90
2022-12-25T10:01:01.083Z,7.90
2022-12-25T10:03:57.880Z,7.90
2022-12-25T10:06:57.380Z,7.90
2022-12-25T10:10:00.456Z,7.90
2022-12-25T10:12:53.870Z,8.00
2022-12-25T10:15:39.297Z,8.10
2022-12-25T10:19:01.205Z,8.20
2022-12-25T10:21:33.136Z,8.30
2022-12-25T10:24:28.279Z,8.30
2022-12-25T10:27:03.383Z,8.30
2022-12-25T10:29:35.818Z,8.50
2022-12-25T10:32:10.234Z,8.50
2022-12-25T10:34:43.473Z,8.50
2022-12-25T10:37:15.911Z,8.60
2022-12-25T10:39:47.578Z,8.60
2022-12-25T10:42:40.756Z,8.70
2022-12-25T10:45:12.460Z,8.70
2022-12-25T10:47:44.311Z,8.70
2022-12-25T10:50:23.982Z,8.70
2022-12-25T10:53:09.343Z,8.80
2022-12-25T10:55:41.022Z,8.80
2022-12-25T10:58:19.970Z,8.80
2022-12-25T11:00:59.054Z,8.90
2022-12-25T11:03:33.496Z,8.90
2022-12-25T11:06:06.784Z,8.90
2022-12-25T11:08:38.780Z,8.90
2022-12-25T11:11:19.257Z,8.90
2022-12-25T11:13:53.957Z,8.90
2022-12-25T11:16:32.054Z,9.00
2022-12-25T11:19:21.424Z,9.20
2022-12-25T11:21:55.874Z,9.30
2022-12-25T11:24:30.485Z,9.40
2022-12-25T11:27:06.433Z,9.50
2022-12-25T11:29:47.876Z,9.50
2022-12-25T11:32:27.744Z,9.60
2022-12-25T11:35:01.353Z,9.70
2022-12-25T11:37:40.515Z,9.70
2022-12-25T11:40:18.141Z,9.70
2022-12-25T11:43:09.049Z,9.80
2022-12-25T11:45:48.485Z,9.90
2022-12-25T11:48:34.082Z,10.00
2022-12-25T11:51:06.941Z,10.10
2022-12-25T11:53:50.620Z,10.20
2022-12-25T11:56:25.059Z,10.30
2022-12-25T11:59:18.750Z,10.40
2022-12-25T12:02:00.127Z,10.40
2022-12-25T12:04:42.639Z,10.40
2022-12-25T12:07:24.967Z,10.40
2022-12-25T12:10:38.195Z,10.40
2022-12-25T12:13:36.007Z,10.30
2022-12-25T12:16:09.242Z,10.40
2022-12-25T12:18:46.543Z,10.40
2022-12-25T12:21:27.240Z,10.40
2022-12-25T12:24:18.042Z,10.40
2022-12-25T12:27:05.781Z,10.30
2022-12-25T12:29:43.130Z,10.20
2022-12-25T12:32:37.867Z,10.30
2022-12-25T12:35:18.975Z,10.30
2022-12-25T12:37:55.619Z,10.40
2022-12-25T12:40:33.185Z,10.40
2022-12-25T12:43:07.338Z,10.40
2022-12-25T12:45:39.121Z,10.40
2022-12-25T12:48:27.457Z,10.40
2022-12-25T12:51:08.692Z,10.50
2022-12-25T12:53:42.670Z,10.40
2022-12-25T12:56:20.142Z,10.30
2022-12-25T12:58:51.899Z,10.20
2022-12-25T13:01:30.223Z,10.10
2022-12-25T13:04:08.631Z,10.00
2022-12-25T13:07:02.932Z,9.90
2022-12-25T13:09:49.656Z,9.90
2022-12-25T13:12:22.811Z,10.00
2022-12-25T13:14:54.576Z,10.10
2022-12-25T13:17:27.477Z,10.20
2022-12-25T13:20:00.939Z,10.20
2022-12-25T13:22:34.970Z,10.20
2022-12-25T13:25:17.241Z,10.20
2022-12-25T13:27:59.443Z,10.20
2022-12-25T13:30:31.122Z,10.20
2022-12-25T13:33:03.640Z,10.20
2022-12-25T13:35:35.399Z,10.20
2022-12-25T13:38:15.623Z,10.10
2022-12-25T13:41:10.917Z,10.10
2022-12-25T13:43:44.810Z,10.10
2022-12-25T13:46:16.707Z,10.10
2022-12-25T13:48:58.991Z,10.10
2022-12-25T13:51:30.656Z,10.10
2022-12-25T13:54:06.781Z,10.10
2022-12-25T13:56:47.380Z,10.10
2022-12-25T13:59:24.785Z,10.10
2022-12-25T14:01:57.623Z,10.00
2022-12-25T14:04:29.539Z,10.10
2022-12-25T14:07:10.207Z,10.10
2022-12-25T14:09:41.966Z,10.00
2022-12-25T14:12:19.128Z,10.00
2022-12-25T14:14:52.786Z,10.00
2022-12-25T14:17:24.915Z,9.90
2022-12-25T14:20:05.673Z,9.90
2022-12-25T14:22:41.341Z,9.80
2022-12-25T14:25:15.689Z,9.80
2022-12-25T14:27:52.085Z,9.80
2022-12-25T14:30:29.549Z,9.60
2022-12-25T14:33:02.640Z,9.80
2022-12-25T14:35:34.752Z,9.80
2022-12-25T14:38:06.715Z,9.80
2022-12-25T14:40:38.450Z,9.70
2022-12-25T14:43:25.739Z,9.70
2022-12-25T14:46:03.486Z,9.70
2022-12-25T14:48:35.241Z,9.70
2022-12-25T14:51:17.266Z,9.70
2022-12-25T14:53:51.943Z,9.70
2022-12-25T14:56:25.815Z,9.70
2022-12-25T14:58:59.438Z,9.60
2022-12-25T15:01:40.889Z,9.60
2022-12-25T15:04:12.679Z,9.50
2022-12-25T15:07:00.216Z,9.50
2022-12-25T15:09:32.098Z,9.50
2022-12-25T15:12:04.108Z,8.60
2022-12-25T15:14:38.364Z,9.30
2022-12-25T15:17:25.313Z,9.30
2022-12-25T15:20:00.122Z,9.20
2022-12-25T15:22:53.895Z,9.20
2022-12-25T15:25:25.491Z,9.20
2022-12-25T15:27:57.319Z,9.10
2022-12-25T15:30:30.332Z,9.00
2022-12-25T15:33:02.034Z,9.00
2022-12-25T15:35:34.312Z,8.90
2022-12-25T15:38:06.108Z,8.90
2022-12-25T15:40:38.593Z,8.90
2022-12-25T15:43:39.484Z,8.90
2022-12-25T15:46:07.976Z,8.90
2022-12-25T15:48:39.715Z,8.90
2022-12-25T15:51:11.407Z,8.90
2022-12-25T15:53:43.177Z,9.00
2022-12-25T15:56:15.111Z,8.90
2022-12-25T15:58:46.771Z,8.90
2022-12-25T16:01:20.495Z,8.80
2022-12-25T16:03:52.298Z,8.80
2022-12-25T16:06:24.006Z,8.70
2022-12-25T16:08:55.744Z,8.70
2022-12-25T16:11:27.422Z,8.70
2022-12-25T16:13:59.119Z,8.70
2022-12-25T16:16:30.944Z,8.60
2022-12-25T16:19:03.456Z,8.60
2022-12-25T16:21:41.989Z,8.60
2022-12-25T16:24:14.171Z,8.60
2022-12-25T16:26:45.906Z,8.60
2022-12-25T16:29:17.600Z,8.60
2022-12-25T16:31:49.343Z,8.60
2022-12-25T16:34:21.092Z,8.60
2022-12-25T16:36:52.989Z,8.60
2022-12-25T16:39:24.787Z,8.60
2022-12-25T16:41:56.973Z,8.60
2022-12-25T16:44:28.699Z,8.60
2022-12-25T16:47:00.475Z,8.60
2022-12-25T16:49:32.366Z,8.60
2022-12-25T16:52:04.293Z,8.60
2022-12-25T16:54:36.285Z,8.60
2022-12-25T16:57:08.052Z,8.60
2022-12-25T16:59:39.858Z,8.50
2022-12-25T17:02:17.029Z,8.50
2022-12-25T17:04:48.947Z,8.50
2022-12-25T17:07:20.756Z,8.50
2022-12-25T17:09:52.545Z,8.50
2022-12-25T17:12:24.222Z,8.50
2022-12-25T17:14:55.914Z,8.40
2022-12-25T17:17:27.647Z,8.30
2022-12-25T17:19:59.385Z,8.30
2022-12-25T17:22:31.519Z,8.30
2022-12-25T17:25:03.666Z,8.40
2022-12-25T17:27:35.499Z,8.40
2022-12-25T17:30:07.982Z,8.40
2022-12-25T17:32:39.676Z,8.40
2022-12-25T17:35:11.383Z,8.30
2022-12-25T17:37:43.260Z,8.30
2022-12-25T17:40:15.365Z,8.30
2022-12-25T17:42:47.054Z,8.30
2022-12-25T17:45:19.878Z,8.20
2022-12-25T17:47:54.967Z,8.20
2022-12-25T17:50:26.732Z,8.20
2022-12-25T17:52:58.426Z,8.20
2022-12-25T17:55:34.102Z,8.30
2022-12-25T17:58:05.943Z,8.20
2022-12-25T18:00:37.664Z,8.20
2022-12-25T18:03:11.800Z,8.20
2022-12-25T18:05:44.008Z,8.30
2022-12-25T18:08:16.079Z,8.20
2022-12-25T18:10:47.790Z,8.20
2022-12-25T18:13:19.510Z,8.20
2022-12-25T18:15:51.270Z,8.20
2022-12-25T18:18:23.059Z,8.10
2022-12-25T18:20:54.795Z,8.10
2022-12-25T18:23:26.499Z,8.10
2022-12-25T18:26:05.464Z,8.10
2022-12-25T18:28:37.567Z,8.10
2022-12-25T18:31:32.802Z,8.00
2022-12-25T18:34:04.659Z,8.00
2022-12-25T18:36:37.401Z,8.00
2022-12-25T18:39:11.399Z,8.00
2022-12-25T18:42:01.855Z,8.00
2022-12-25T18:44:33.540Z,7.90
2022-12-25T18:47:05.352Z,7.90
2022-12-25T18:49:37.105Z,7.80
2022-12-25T18:52:47.851Z,7.80
2022-12-25T18:55:00.559Z,7.80
2022-12-25T18:57:32.897Z,7.90
2022-12-25T19:00:06.577Z,7.80
2022-12-25T19:02:38.416Z,7.80
2022-12-25T19:05:10.269Z,7.70
2022-12-25T19:07:42.400Z,7.70
2022-12-25T19:10:14.281Z,7.70
2022-12-25T19:12:46.379Z,7.70
2022-12-25T19:15:18.090Z,7.70
2022-12-25T19:17:49.805Z,7.60
2022-12-25T19:20:21.594Z,7.60
2022-12-25T19:22:53.365Z,7.60
2022-12-25T19:25:25.067Z,7.60
2022-12-25T19:27:56.735Z,7.50
2022-12-25T19:30:28.505Z,7.50
2022-12-25T19:33:00.243Z,7.50
2022-12-25T19:35:31.940Z,7.50
2022-12-25T19:38:03.626Z,7.50
2022-12-25T19:40:40.047Z,7.50
2022-12-25T19:43:12.561Z,7.50
2022-12-25T19:45:44.374Z,7.50
2022-12-25T19:48:16.280Z,7.50
2022-12-25T19:50:48.018Z,7.40
2022-12-25T19:53:23.101Z,7.40
2022-12-25T19:55:55.483Z,7.40
2022-12-25T19:58:27.182Z,7.40
2022-12-25T20:01:01.130Z,7.30
2022-12-25T20:03:34.467Z,7.30
2022-12-25T20:06:08.074Z,7.30
2022-12-25T20:08:40.708Z,7.30
2022-12-25T20:11:12.541Z,7.30
2022-12-25T20:13:44.388Z,7.30
2022-12-25T20:16:16.713Z,7.30
2022-12-25T20:18:48.489Z,7.30
2022-12-25T20:21:22.769Z,7.30
2022-12-25T20:23:54.838Z,7.30
2022-12-25T20:26:29.413Z,7.30
2022-12-25T20:29:01.125Z,7.30
2022-12-25T20:31:34.590Z,7.20
2022-12-25T20:34:08.518Z,7.30
2022-12-25T20:36:40.338Z,7.30
2022-12-25T20:39:13.347Z,7.20
2022-12-25T20:41:45.215Z,7.20
2022-12-25T20:44:16.988Z,7.20
2022-12-25T20:46:48.682Z,7.20
2022-12-25T20:49:20.432Z,7.20
2022-12-25T20:51:52.143Z,7.20
2022-12-25T20:54:24.019Z,7.20
2022-12-25T20:56:55.724Z,7.10
2022-12-25T20:59:32.044Z,7.10
2022-12-25T21:02:08.732Z,7.10
2022-12-25T21:05:00.275Z,7.10
2022-12-25T21:07:31.947Z,7.00
2022-12-25T21:10:05.085Z,7.00
2022-12-25T21:12:36.768Z,7.00
2022-12-25T21:15:14.930Z,6.90
2022-12-25T21:17:47.220Z,6.90
2022-12-25T21:20:18.954Z,6.90
2022-12-25T21:22:50.647Z,6.90
2022-12-25T21:25:22.343Z,6.80
2022-12-25T21:27:54.050Z,6.80
2022-12-25T21:30:25.831Z,6.70
2022-12-25T21:33:17.316Z,6.70
2022-12-25T21:35:49.400Z,6.70
2022-12-25T21:38:21.071Z,6.70
2022-12-25T21:40:52.783Z,6.70
2022-12-25T21:43:24.478Z,6.70
2022-12-25T21:45:56.313Z,6.60
2022-12-25T21:48:28.035Z,6.60
2022-12-25T21:51:41.613Z,6.60
2022-12-25T21:54:14.391Z,6.60
2022-12-25T21:56:47.737Z,6.50
2022-12-25T21:59:21.235Z,6.50
2022-12-25T22:01:53.370Z,6.50
2022-12-25T22:04:25.594Z,6.40
2022-12-25T22:07:16.021Z,6.40
2022-12-25T22:09:51.513Z,6.30
2022-12-25T22:12:41.969Z,6.40
2022-12-25T22:15:13.775Z,6.30
2022-12-25T22:18:04.107Z,6.30
2022-12-25T22:20:38.459Z,6.30
2022-12-25T22:23:10.127Z,6.30
2022-12-25T22:25:41.801Z,6.30
2022-12-25T22:28:13.503Z,6.30
2022-12-25T22:30:45.231Z,6.30
2022-12-25T22:33:16.952Z,6.30
2022-12-25T22:35:48.654Z,6.30
2022-12-25T22:38:20.327Z,6.30
2022-12-25T22:40:52.076Z,6.40
2022-12-25T22:43:32.527Z,6.40
2022-12-25T22:46:15.902Z,6.30
2022-12-25T22:48:47.602Z,6.30
2022-12-25T22:51:19.284Z,6.30
2022-12-25T22:53:50.983Z,6.20
2022-12-25T22:56:22.675Z,6.20
2022-12-25T22:58:55.795Z,6.10
2022-12-25T23:01:27.654Z,6.10
2022-12-25T23:03:59.551Z,6.10
2022-12-25T23:06:31.533Z,6.10
2022-12-25T23:09:04.363Z,6.00
2022-12-25T23:11:36.617Z,6.00
2022-12-25T23:14:27.943Z,6.00
2022-12-25T23:16:59.817Z,6.00
2022-12-25T23:19:50.087Z,5.90
2022-12-25T23:22:40.719Z,5.90
2022-12-25T23:25:33.795Z,5.80
2022-12-25T23:28:05.449Z,5.80
2022-12-25T23:30:37.106Z,5.80
2022-12-25T23:33:08.799Z,5.80
2022-12-25T23:35:40.477Z,5.80
2022-12-25T23:38:12.143Z,5.70
2022-12-25T23:40:43.812Z,5.70
2022-12-25T23:43:15.670Z,5.70
2022-12-25T23:45:47.402Z,5.70
2022-12-25T23:48:19.100Z,5.70
2022-12-25T23:50:50.816Z,5.70
2022-12-25T23:53:22.682Z,5.70
2022-12-25T23:55:56.005Z,5.70
2022-12-25T23:58:28.774Z,5.70
